Time;durP1;ratioP1;P1;durP2;ratioP2;P2;SDS_P1;SDS_P2;PMS_P1;PMS_P2;Temp;Humidity;BMP_temperature;BMP_pressure;BME280_temperature;BME280_humidity;BME280_pressure;Samples;Min_cycle;Max_cycle;Signal;HPM_P1;HPM_P2
2022/06/13 00:01:19;;;;;;;2.83;1.60;;;26.20;66.10;;;;;;5025582;28;20029;-63
2022/06/13 00:03:44;;;;;;;4.38;1.75;;;26.20;66.00;;;;;;5024301;28;20319;-62
2022/06/13 00:06:10;;;;;;;3.38;1.30;;;26.20;66.20;;;;;;5023220;28;20466;-62
2022/06/13 00:08:35;;;;;;;2.72;1.50;;;26.10;66.30;;;;;;5041068;28;20037;-62
2022/06/13 00:11:01;;;;;;;5.47;1.85;;;26.10;66.50;;;;;;5042164;28;20028;-62
2022/06/13 00:13:26;;;;;;;2.10;1.50;;;26.00;66.60;;;;;;5025503;28;20029;-62
2022/06/13 00:15:52;;;;;;;3.15;1.55;;;26.00;66.60;;;;;;5042588;28;20083;-61
2022/06/13 00:18:17;;;;;;;1.92;1.38;;;25.90;66.70;;;;;;5040637;28;20254;-62
2022/06/13 00:20:43;;;;;;;3.30;1.40;;;25.90;66.80;;;;;;5039628;28;20033;-61
2022/06/13 00:23:08;;;;;;;4.38;1.83;;;25.90;67.10;;;;;;5041552;28;20485;-62
2022/06/13 00:25:34;;;;;;;2.58;1.60;;;25.90;67.10;;;;;;5042850;28;20064;-61
2022/06/13 00:27:59;;;;;;;3.20;1.60;;;25.90;67.00;;;;;;5041919;28;20036;-62
2022/06/13 00:30:25;;;;;;;4.20;1.42;;;25.80;66.80;;;;;;5041469;28;20065;-62
2022/06/13 00:32:51;;;;;;;2.45;1.30;;;25.80;67.50;;;;;;5040742;28;20039;-63
2022/06/13 00:35:17;;;;;;;3.50;1.63;;;25.80;66.90;;;;;;5042409;28;20338;-62
2022/06/13 00:37:42;;;;;;;3.30;1.70;;;25.70;66.90;;;;;;5005963;28;20057;-62
2022/06/13 00:40:08;;;;;;;4.70;1.50;;;25.70;67.20;;;;;;5041284;28;20037;-62
2022/06/13 00:42:34;;;;;;;2.00;1.50;;;25.70;67.20;;;;;;5008288;28;20029;-61
2022/06/13 00:45:14;;;;;;;2.42;1.20;;;25.70;67.30;;;;;;5022538;28;20606;-62
2022/06/13 00:47:41;;;;;;;2.80;1.70;;;25.60;67.30;;;;;;5040594;28;20047;-62
2022/06/13 00:50:08;;;;;;;1.90;1.20;;;25.60;67.40;;;;;;5042078;28;20407;-62
2022/06/13 00:52:48;;;;;;;4.97;1.67;;;25.60;67.50;;;;;;5023798;28;20056;-62
2022/06/13 00:55:17;;;;;;;4.07;1.45;;;25.60;67.70;;;;;;5025322;28;20033;-61
2022/06/13 00:57:42;;;;;;;2.03;1.30;;;25.50;67.70;;;;;;5026774;28;20025;-62
2022/06/13 01:00:11;;;;;;;2.13;1.40;;;25.60;68.00;;;;;;5045202;28;20033;-62
2022/06/13 01:02:38;;;;;;;2.53;1.48;;;25.50;67.90;;;;;;5045574;28;20036;-62
2022/06/13 01:05:04;;;;;;;3.20;1.45;;;25.50;68.00;;;;;;5027865;28;20519;-62
2022/06/13 01:07:29;;;;;;;2.15;1.27;;;25.40;68.10;;;;;;5027847;28;20059;-62
2022/06/13 01:12:39;;;;;;;2.30;1.27;;;25.40;68.40;;;;;;5028481;28;20036;-63
2022/06/13 01:15:30;;;;;;;4.35;1.38;;;25.30;68.30;;;;;;5044385;28;20033;-62
2022/06/13 01:18:13;;;;;;;1.90;1.15;;;25.40;68.30;;;;;;5027421;28;20127;-62
2022/06/13 01:20:54;;;;;;;2.80;1.55;;;25.40;68.40;;;;;;5027639;28;20076;-62
2022/06/13 01:23:31;;;;;;;3.00;1.50;;;25.30;68.50;;;;;;5044781;28;20021;-62
2022/06/13 01:26:22;;;;;;;4.53;1.63;;;25.20;68.50;;;;;;5025696;28;20029;-62
2022/06/13 01:29:02;;;;;;;3.15;1.48;;;25.30;68.80;;;;;;5027642;28;20024;-62
2022/06/13 01:31:50;;;;;;;2.20;1.38;;;25.20;68.60;;;;;;5027198;28;20029;-62
2022/06/13 01:34:28;;;;;;;2.33;1.20;;;25.20;68.70;;;;;;5013469;28;20013;-62
2022/06/13 01:37:06;;;;;;;4.90;1.33;;;25.20;68.60;;;;;;5042100;28;20132;-62
2022/06/13 01:40:03;;;;;;;2.85;1.38;;;25.20;68.50;;;;;;5007565;28;20025;-63
2022/06/13 01:42:41;;;;;;;2.08;1.38;;;25.10;68.50;;;;;;4999260;28;20053;-62
2022/06/13 01:45:32;;;;;;;2.63;1.23;;;25.10;68.60;;;;;;5045479;28;20029;-63
2022/06/13 01:48:09;;;;;;;1.60;1.10;;;25.10;68.80;;;;;;5012835;28;20535;-61
2022/06/13 01:51:01;;;;;;;1.88;1.17;;;25.10;69.10;;;;;;5024773;28;20110;-62
2022/06/13 01:53:44;;;;;;;3.15;1.50;;;25.10;69.20;;;;;;5026900;28;20067;-62
2022/06/13 01:56:11;;;;;;;6.28;1.60;;;25.00;69.20;;;;;;5010318;28;20105;-63
2022/06/13 01:58:41;;;;;;;3.45;1.45;;;25.00;69.40;;;;;;5044747;28;20025;-61
2022/06/13 02:01:31;;;;;;;2.10;1.60;;;25.00;69.50;;;;;;5044345;28;20371;-61
2022/06/13 02:04:06;;;;;;;5.13;1.27;;;25.00;69.70;;;;;;5026625;28;20128;-62
2022/06/13 02:06:37;;;;;;;2.28;1.58;;;25.00;69.80;;;;;;5025877;28;20033;-62
2022/06/13 02:09:20;;;;;;;2.20;1.33;;;24.90;69.70;;;;;;5025696;28;20025;-61
2022/06/13 02:11:47;;;;;;;2.55;1.50;;;24.90;69.90;;;;;;5009487;28;20504;-62
2022/06/13 02:14:22;;;;;;;2.30;1.30;;;24.80;70.00;;;;;;5026615;28;20040;-62
2022/06/13 02:17:03;;;;;;;3.58;1.30;;;24.80;70.00;;;;;;5042361;28;20043;-63
2022/06/13 02:19:34;;;;;;;3.38;1.33;;;24.80;70.30;;;;;;5024767;28;20028;-62
2022/06/13 02:22:04;;;;;;;3.63;1.40;;;24.80;70.20;;;;;;5044009;28;20033;-62
2022/06/13 02:24:35;;;;;;;3.10;1.55;;;24.80;70.20;;;;;;5026524;28;20025;-61
2022/06/13 02:27:01;;;;;;;2.38;1.50;;;24.80;70.30;;;;;;5025189;28;20369;-62
2022/06/13 02:29:30;;;;;;;2.05;1.42;;;24.80;70.30;;;;;;5024972;28;20032;-62
2022/06/13 02:31:59;;;;;;;1.92;1.40;;;24.70;70.20;;;;;;5025427;28;20147;-62
2022/06/13 02:34:30;;;;;;;3.25;1.60;;;24.70;70.40;;;;;;5026359;28;20153;-63
2022/06/13 02:37:01;;;;;;;1.80;1.30;;;24.70;70.80;;;;;;5026089;28;20412;-63
2022/06/13 02:39:31;;;;;;;2.58;1.38;;;24.60;71.00;;;;;;5023456;28;20120;-63
2022/06/13 02:42:02;;;;;;;2.80;1.48;;;24.60;70.90;;;;;;5009056;28;20052;-62
2022/06/13 02:44:30;;;;;;;3.00;1.27;;;24.60;71.00;;;;;;5025291;28;20438;-62
2022/06/13 02:46:57;;;;;;;4.43;1.52;;;24.60;71.20;;;;;;5043975;28;20356;-62
2022/06/13 02:49:35;;;;;;;3.28;1.42;;;24.60;71.20;;;;;;5025668;28;20033;-62
2022/06/13 02:52:16;;;;;;;4.57;1.50;;;24.60;71.20;;;;;;5026499;28;20113;-62
2022/06/13 02:54:53;;;;;;;1.90;1.35;;;24.50;71.40;;;;;;5025251;28;20032;-61
2022/06/13 02:57:49;;;;;;;2.95;1.48;;;24.50;71.90;;;;;;5023118;28;20033;-63
2022/06/13 03:00:27;;;;;;;3.30;1.23;;;24.40;72.00;;;;;;5044400;28;20112;-62
2022/06/13 03:03:33;;;;;;;2.35;1.50;;;24.40;72.10;;;;;;5026650;28;20499;-61
2022/06/13 03:06:01;;;;;;;3.20;1.50;;;24.40;72.10;;;;;;5042688;28;20113;-62
2022/06/13 03:08:45;;;;;;;4.35;1.80;;;24.40;72.30;;;;;;5024245;28;20025;-63
2022/06/13 03:11:14;;;;;;;2.63;1.50;;;24.40;72.30;;;;;;5043106;28;20420;-62
2022/06/13 03:14:08;;;;;;;3.05;1.80;;;24.40;72.30;;;;;;5043464;28;20064;-63
2022/06/13 03:16:45;;;;;;;2.42;1.30;;;24.30;72.70;;;;;;5042195;28;20115;-62
2022/06/13 03:19:15;;;;;;;2.30;1.48;;;24.30;72.40;;;;;;5042624;28;20248;-62
2022/06/13 03:22:13;;;;;;;5.13;1.40;;;24.30;72.70;;;;;;5022655;28;20067;-63
2022/06/13 03:25:13;;;;;;;2.42;1.50;;;24.30;73.00;;;;;;5040823;28;20555;-62
2022/06/13 03:27:59;;;;;;;1.60;1.10;;;24.30;73.10;;;;;;5024857;28;20465;-62
2022/06/13 03:30:27;;;;;;;5.47;1.30;;;24.30;73.30;;;;;;5025400;28;20092;-62
2022/06/13 03:35:39;;;;;;;2.58;1.40;;;24.20;73.80;;;;;;5026336;28;20048;-63
2022/06/13 03:38:06;;;;;;;2.95;1.38;;;24.20;73.80;;;;;;5022889;28;20025;-64
2022/06/13 03:40:32;;;;;;;2.30;1.17;;;24.20;73.70;;;;;;5025849;28;20033;-62
2022/06/13 03:43:26;;;;;;;3.60;1.50;;;24.10;73.70;;;;;;5025812;28;20044;-62
2022/06/13 03:45:56;;;;;;;3.72;1.40;;;24.10;73.80;;;;;;5025965;28;20279;-63
2022/06/13 03:48:28;;;;;;;3.45;1.30;;;24.10;74.00;;;;;;5023373;28;20126;-62
2022/06/13 03:51:00;;;;;;;2.08;1.50;;;24.10;74.30;;;;;;5024454;28;20086;-63
2022/06/13 03:53:44;;;;;;;1.60;1.25;;;24.10;74.30;;;;;;5025306;28;20040;-63
2022/06/13 03:56:12;;;;;;;3.63;1.50;;;24.10;74.60;;;;;;5023511;28;20408;-62
2022/06/13 03:58:44;;;;;;;2.25;1.45;;;24.00;74.60;;;;;;5042587;28;20329;-63
2022/06/13 04:01:20;;;;;;;1.25;1.15;;;24.00;74.70;;;;;;5024059;28;20033;-61
2022/06/13 04:03:45;;;;;;;2.97;1.52;;;23.80;74.70;;;;;;5024374;28;20025;-63
2022/06/13 04:06:33;;;;;;;3.28;1.75;;;24.00;74.70;;;;;;5025323;28;20170;-61
2022/06/13 04:09:00;;;;;;;3.05;1.65;;;23.90;75.00;;;;;;5042530;28;20162;-63
2022/06/13 04:12:12;;;;;;;2.70;1.52;;;23.90;74.90;;;;;;5042762;28;20116;-62
2022/06/13 04:15:00;;;;;;;4.70;1.50;;;23.90;74.90;;;;;;4943426;28;20122;-63
2022/06/13 04:18:07;;;;;;;1.60;1.33;;;23.90;74.90;;;;;;5024632;28;20025;-61
2022/06/13 04:20:41;;;;;;;;;;;23.90;74.80;;;;;;4961877;28;20035;-62
2022/06/13 04:23:19;;;;;;;6.75;1.73;;;23.90;74.90;;;;;;4945347;28;19972;-63
2022/06/13 04:26:03;;;;;;;3.55;1.63;;;23.80;75.10;;;;;;4993460;28;20207;-61
2022/06/13 04:29:10;;;;;;;2.70;1.38;;;23.80;75.30;;;;;;5021926;28;20142;-62
2022/06/13 04:31:35;;;;;;;6.18;1.65;;;23.80;75.30;;;;;;5029642;28;20021;-62
2022/06/13 04:34:09;;;;;;;3.53;1.40;;;23.80;75.30;;;;;;5028843;28;20033;-62
2022/06/13 04:36:34;;;;;;;2.47;1.30;;;23.80;75.60;;;;;;5028228;28;20052;-62
2022/06/13 04:39:03;;;;;;;4.05;1.80;;;23.80;75.90;;;;;;5044581;28;20103;-62
2022/06/13 04:41:30;;;;;;;3.45;1.58;;;23.70;75.90;;;;;;5010537;28;20400;-62
2022/06/13 04:43:57;;;;;;;3.28;1.50;;;23.70;76.10;;;;;;5029085;28;20021;-63
2022/06/13 04:46:25;;;;;;;4.53;1.90;;;23.70;76.10;;;;;;5027684;28;20033;-63
2022/06/13 04:48:51;;;;;;;3.03;1.50;;;23.70;76.00;;;;;;5027639;28;20099;-61
2022/06/13 04:51:23;;;;;;;2.97;1.25;;;23.70;76.10;;;;;;5027352;28;20024;-62
2022/06/13 04:53:54;;;;;;;2.05;1.40;;;23.70;76.10;;;;;;5026968;28;20330;-64
2022/06/13 04:56:23;;;;;;;2.47;1.58;;;23.70;76.30;;;;;;5026961;28;20412;-63
2022/06/13 04:58:50;;;;;;;3.45;1.58;;;23.70;76.50;;;;;;5028137;28;20025;-64
2022/06/13 05:01:33;;;;;;;3.20;1.70;;;23.60;76.60;;;;;;5028365;28;20053;-62
2022/06/13 05:04:00;;;;;;;3.50;1.42;;;23.60;76.50;;;;;;5026498;28;20029;-62
2022/06/13 05:06:34;;;;;;;2.70;1.42;;;23.60;77.20;;;;;;5026385;28;20090;-63
2022/06/13 05:09:11;;;;;;;3.92;1.58;;;23.60;76.40;;;;;;5026266;28;20021;-62
2022/06/13 05:11:43;;;;;;;2.75;1.30;;;23.70;76.20;;;;;;5028577;28;20029;-61
2022/06/13 05:14:14;;;;;;;2.78;1.50;;;23.60;76.20;;;;;;5045717;28;20235;-63
2022/06/13 05:16:49;;;;;;;4.13;1.40;;;23.60;76.30;;;;;;5027463;28;20111;-63
2022/06/13 05:19:20;;;;;;;2.40;1.50;;;23.60;76.60;;;;;;5043151;28;20041;-61
2022/06/13 05:22:00;;;;;;;1.95;1.30;;;23.60;76.90;;;;;;5045450;28;20110;-61
2022/06/13 05:24:46;;;;;;;1.55;1.25;;;23.60;77.00;;;;;;5028146;28;20021;-62
2022/06/13 05:27:11;;;;;;;3.75;1.92;;;23.60;77.30;;;;;;5029145;28;20431;-61
2022/06/13 05:29:37;;;;;;;2.90;1.48;;;23.60;77.20;;;;;;5026486;28;20033;-62
2022/06/13 05:32:05;;;;;;;4.50;1.83;;;23.50;77.20;;;;;;5025900;28;20043;-62
2022/06/13 05:34:37;;;;;;;2.90;1.67;;;23.50;77.20;;;;;;5024879;28;20093;-61
2022/06/13 05:37:03;;;;;;;2.42;1.42;;;23.50;77.50;;;;;;5026269;28;20053;-61
2022/06/13 05:39:29;;;;;;;2.55;1.50;;;23.50;76.90;;;;;;5025985;28;20085;-62
2022/06/13 05:41:54;;;;;;;2.00;1.45;;;23.50;76.60;;;;;;5027824;28;20048;-62
2022/06/13 05:44:20;;;;;;;2.63;1.70;;;23.60;76.50;;;;;;5025244;28;20119;-62
2022/06/13 05:46:45;;;;;;;6.25;1.67;;;23.60;76.60;;;;;;5023934;28;20114;-61
2022/06/13 05:49:14;;;;;;;3.05;1.50;;;23.60;76.50;;;;;;5042372;28;20458;-62
2022/06/13 05:51:41;;;;;;;2.42;1.80;;;23.60;76.40;;;;;;5045600;28;20456;-62
2022/06/13 05:54:11;;;;;;;3.20;1.55;;;23.60;76.20;;;;;;5044503;28;20082;-62
2022/06/13 05:56:37;;;;;;;4.45;1.90;;;23.60;76.10;;;;;;5007171;28;20064;-62
2022/06/13 05:59:03;;;;;;;3.10;1.60;;;23.60;76.30;;;;;;5007432;28;20115;-63
2022/06/13 06:01:28;;;;;;;3.80;2.00;;;23.60;76.20;;;;;;5025253;28;20138;-62
2022/06/13 06:03:54;;;;;;;7.88;2.28;;;23.60;76.50;;;;;;5026512;28;20677;-62
2022/06/13 06:06:23;;;;;;;9.38;1.80;;;23.60;78.60;;;;;;5043903;28;20025;-61
2022/06/13 06:08:49;;;;;;;7.57;2.00;;;23.60;78.80;;;;;;5025471;28;20133;-63
2022/06/13 06:11:14;;;;;;;2.95;1.67;;;23.60;78.50;;;;;;5024751;28;20045;-63
2022/06/13 06:13:40;;;;;;;6.60;1.70;;;23.70;78.20;;;;;;5043067;28;20044;-62
2022/06/13 06:16:06;;;;;;;4.82;2.03;;;23.60;78.30;;;;;;5039564;28;20072;-62
2022/06/13 06:18:31;;;;;;;6.93;2.75;;;23.60;79.80;;;;;;5025513;28;20426;-61
2022/06/13 06:20:57;;;;;;;4.28;1.92;;;23.60;80.40;;;;;;5025072;28;20120;-61
2022/06/13 06:23:23;;;;;;;7.32;2.10;;;23.60;80.90;;;;;;5042277;28;20056;-61
2022/06/13 06:25:48;;;;;;;4.90;2.03;;;23.60;81.10;;;;;;5039350;28;20041;-61
2022/06/13 06:28:19;;;;;;;4.70;2.10;;;23.60;81.10;;;;;;5021985;28;20135;-64
2022/06/13 06:30:45;;;;;;;13.57;3.03;;;23.60;81.30;;;;;;5024785;28;20025;-62
2022/06/13 06:33:10;;;;;;;8.32;2.00;;;23.60;81.40;;;;;;5043507;28;20154;-64
2022/06/13 06:35:36;;;;;;;7.45;2.03;;;23.60;81.30;;;;;;5025163;28;20032;-62
2022/06/13 06:38:02;;;;;;;8.38;2.28;;;23.60;81.40;;;;;;5022495;28;20501;-63
2022/06/13 06:40:28;;;;;;;9.73;2.20;;;23.60;82.00;;;;;;5041689;28;20071;-62
2022/06/13 06:42:54;;;;;;;4.22;2.20;;;23.50;82.00;;;;;;5025198;28;20862;-62
2022/06/13 06:45:20;;;;;;;8.30;2.25;;;23.60;81.80;;;;;;5006670;28;20366;-62
2022/06/13 06:47:45;;;;;;;6.47;2.20;;;23.60;82.20;;;;;;5023047;28;20029;-61
2022/06/13 06:50:13;;;;;;;7.15;2.20;;;23.50;82.10;;;;;;5040814;28;20437;-63
2022/06/13 06:52:39;;;;;;;5.72;2.35;;;23.50;82.50;;;;;;5023690;28;20013;-63
2022/06/13 07:00:33;;;;;;;3.72;2.13;;;23.50;82.00;;;;;;5041745;28;20078;-62
2022/06/13 07:02:58;;;;;;;5.10;1.80;;;23.50;82.00;;;;;;5038942;28;20025;-62
2022/06/13 07:05:24;;;;;;;5.85;2.08;;;23.50;81.80;;;;;;5037763;28;20480;-63
2022/06/13 07:07:49;;;;;;;6.65;2.05;;;23.60;81.90;;;;;;5036708;28;20591;-63
2022/06/13 07:10:15;;;;;;;6.03;1.80;;;23.60;81.60;;;;;;5041054;28;20041;-61
2022/06/13 07:12:40;;;;;;;6.63;2.13;;;23.60;81.70;;;;;;5024657;28;20047;-63
2022/06/13 07:15:06;;;;;;;4.57;2.38;;;23.60;81.40;;;;;;5023379;28;20231;-63
2022/06/13 07:17:32;;;;;;;5.57;2.00;;;23.60;80.90;;;;;;5022502;28;20095;-63
2022/06/13 07:19:57;;;;;;;7.35;2.03;;;23.60;80.60;;;;;;5021610;28;20592;-62
2022/06/13 07:22:23;;;;;;;6.85;1.75;;;23.60;80.30;;;;;;5022300;28;20041;-63
2022/06/13 07:24:49;;;;;;;11.63;2.15;;;23.70;80.10;;;;;;5020869;28;20029;-62
2022/06/13 07:27:15;;;;;;;7.13;1.98;;;23.70;80.20;;;;;;5017547;28;20025;-62
2022/06/13 07:29:40;;;;;;;6.88;2.30;;;23.60;79.80;;;;;;5020703;28;20033;-62
2022/06/13 07:32:11;;;;;;;6.25;2.05;;;23.70;79.60;;;;;;5040644;28;20045;-64
2022/06/13 07:34:37;;;;;;;7.30;2.38;;;23.70;79.40;;;;;;5022759;28;20071;-63
2022/06/13 07:37:03;;;;;;;10.80;2.53;;;23.60;78.90;;;;;;5022812;28;20044;-62
2022/06/13 07:39:29;;;;;;;11.40;3.10;;;23.70;79.10;;;;;;5008737;28;20033;-63
2022/06/13 07:41:54;;;;;;;14.90;3.75;;;23.70;78.90;;;;;;5040900;28;20079;-62
2022/06/13 07:44:31;;;;;;;15.60;2.97;;;23.60;78.60;;;;;;5023292;28;20546;-62
2022/06/13 07:46:56;;;;;;;8.25;2.47;;;23.70;78.50;;;;;;5021599;28;20435;-62
2022/06/13 07:49:22;;;;;;;12.45;2.60;;;23.70;78.50;;;;;;5038317;28;20071;-63
2022/06/13 07:51:48;;;;;;;11.70;3.28;;;23.70;78.30;;;;;;5041495;28;20134;-63
2022/06/13 07:54:13;;;;;;;11.48;2.78;;;23.70;78.00;;;;;;4989930;28;20086;-63
2022/06/13 07:56:39;;;;;;;9.02;2.60;;;23.70;77.90;;;;;;5039542;28;20076;-62
2022/06/13 07:59:05;;;;;;;12.30;2.58;;;23.70;77.70;;;;;;5020711;28;20028;-62
2022/06/13 08:01:30;;;;;;;9.35;2.45;;;23.70;77.50;;;;;;5022773;28;20041;-62
2022/06/13 08:03:56;;;;;;;9.45;3.17;;;23.70;77.70;;;;;;5023899;28;20021;-62
2022/06/13 08:06:21;;;;;;;11.07;2.78;;;23.70;77.50;;;;;;5021990;28;20524;-62
2022/06/13 08:08:47;;;;;;;9.55;2.80;;;23.70;77.50;;;;;;5021822;28;20937;-61
2022/06/13 08:11:19;;;;;;;6.18;2.55;;;23.70;77.50;;;;;;5021262;28;20751;-62
2022/06/13 08:13:44;;;;;;;12.45;2.65;;;23.70;77.30;;;;;;5016809;28;20134;-62
2022/06/13 08:16:10;;;;;;;10.48;2.83;;;23.70;76.80;;;;;;5039724;28;20518;-62
2022/06/13 08:18:36;;;;;;;22.67;3.40;;;23.60;75.90;;;;;;5020788;28;20762;-63
2022/06/13 08:21:02;;;;;;;17.50;2.53;;;23.60;75.90;;;;;;5021130;28;20025;-62
2022/06/13 08:23:27;;;;;;;8.50;2.67;;;23.60;75.40;;;;;;5032287;28;20110;-63
2022/06/13 08:25:53;;;;;;;14.45;2.97;;;23.60;75.90;;;;;;5036882;28;20093;-62
2022/06/13 08:28:19;;;;;;;12.38;2.70;;;23.70;75.20;;;;;;5018545;28;20071;-63
2022/06/13 08:31:01;;;;;;;11.35;2.83;;;23.60;74.70;;;;;;5006158;28;20029;-63
2022/06/13 08:33:27;;;;;;;14.73;2.97;;;23.60;74.20;;;;;;5005819;28;20064;-62
2022/06/13 08:35:52;;;;;;;15.05;2.97;;;23.60;74.00;;;;;;5037988;28;20060;-63
2022/06/13 08:38:18;;;;;;;14.13;2.63;;;23.60;73.80;;;;;;5018349;28;20476;-62
2022/06/13 08:41:11;;;;;;;12.40;2.92;;;23.60;73.70;;;;;;5016514;28;20033;-63
2022/06/13 08:44:02;;;;;;;23.23;3.55;;;23.60;73.60;;;;;;5032414;28;20035;-61
2022/06/13 08:46:34;;;;;;;21.98;3.67;;;23.60;73.60;;;;;;5032394;28;20425;-62
2022/06/13 08:49:17;;;;;;;23.90;4.25;;;23.60;73.40;;;;;;5019000;28;20195;-62
2022/06/13 08:52:06;;;;;;;31.55;5.20;;;23.60;73.40;;;;;;5016978;28;20025;-62
2022/06/13 08:54:34;;;;;;;24.45;4.45;;;23.70;73.30;;;;;;5000282;28;20029;-62
2022/06/13 08:57:04;;;;;;;27.50;4.43;;;23.60;73.10;;;;;;5020613;28;20090;-62
2022/06/13 08:59:34;;;;;;;29.15;4.60;;;23.60;73.10;;;;;;5001793;28;20032;-62
2022/06/13 09:02:15;;;;;;;41.40;5.53;;;23.60;73.10;;;;;;5014219;28;20469;-61
2022/06/13 09:04:50;;;;;;;20.40;4.97;;;23.60;73.10;;;;;;5034686;28;20024;-62
2022/06/13 09:07:29;;;;;;;35.20;4.65;;;23.60;73.00;;;;;;5034234;28;20563;-62
2022/06/13 09:09:59;;;;;;;30.55;4.82;;;23.60;73.00;;;;;;5036946;28;20102;-62
2022/06/13 09:12:37;;;;;;;21.20;4.45;;;23.70;73.20;;;;;;5017119;28;20025;-62
2022/06/13 09:15:11;;;;;;;17.02;4.10;;;23.60;73.20;;;;;;5020906;28;20029;-62
2022/06/13 09:17:39;;;;;;;17.13;3.72;;;23.70;73.10;;;;;;5004038;28;20132;-62
2022/06/13 09:20:11;;;;;;;15.98;3.35;;;23.60;72.90;;;;;;5009015;28;20322;-61
2022/06/13 09:22:48;;;;;;;36.95;5.43;;;23.60;73.00;;;;;;5018764;28;20685;-62
2022/06/13 09:25:36;;;;;;;16.65;3.90;;;23.60;73.80;;;;;;5018964;28;20902;-62
2022/06/13 09:28:10;;;;;;;25.20;4.25;;;23.60;72.80;;;;;;5035708;28;20021;-62
2022/06/13 09:30:38;;;;;;;27.40;4.00;;;23.60;72.50;;;;;;5005136;28;20117;-63
2022/06/13 09:33:33;;;;;;;29.83;5.30;;;23.50;72.70;;;;;;5020455;28;20036;-62
2022/06/13 09:36:03;;;;;;;20.92;5.15;;;23.50;73.00;;;;;;5029914;28;20041;-62
2022/06/13 09:38:38;;;;;;;30.50;4.38;;;23.50;72.90;;;;;;5017477;28;20095;-61
2022/06/13 09:41:08;;;;;;;21.73;4.18;;;23.60;72.80;;;;;;5037159;28;20120;-62
2022/06/13 09:43:58;;;;;;;35.53;5.13;;;23.60;72.90;;;;;;5016212;28;20760;-63
2022/06/13 09:46:52;;;;;;;29.75;4.95;;;23.60;72.90;;;;;;5001248;28;20411;-62
2022/06/13 09:49:39;;;;;;;28.02;5.28;;;23.60;72.80;;;;;;5019808;28;20161;-62
2022/06/13 09:52:11;;;;;;;31.52;6.10;;;23.60;72.80;;;;;;5003697;28;20037;-62
2022/06/13 09:54:39;;;;;;;35.45;5.30;;;23.70;73.10;;;;;;5036628;28;20809;-61
2022/06/13 09:57:20;;;;;;;57.90;6.13;;;23.70;72.70;;;;;;5020309;28;20458;-62
2022/06/13 10:00:14;;;;;;;35.58;6.00;;;23.70;72.60;;;;;;5034107;28;20112;-62
2022/06/13 10:02:58;;;;;;;19.42;4.40;;;23.70;72.40;;;;;;5021218;28;20028;-62
2022/06/13 10:05:30;;;;;;;30.40;4.32;;;23.70;72.30;;;;;;5031800;28;20052;-62
2022/06/13 10:08:03;;;;;;;22.15;4.78;;;23.70;72.20;;;;;;5030171;28;20542;-62
2022/06/13 10:10:47;;;;;;;22.83;4.80;;;23.70;72.00;;;;;;5033191;28;20511;-62
2022/06/13 10:13:36;;;;;;;27.45;4.53;;;23.70;72.00;;;;;;5022506;28;20136;-62
2022/06/13 10:16:08;;;;;;;25.60;4.22;;;23.70;71.80;;;;;;5017893;28;20389;-61
2022/06/13 10:19:09;;;;;;;23.85;4.47;;;23.70;71.00;;;;;;5013939;28;20047;-62
2022/06/13 10:21:47;;;;;;;41.33;4.82;;;23.70;71.10;;;;;;4971638;28;20074;-62
2022/06/13 10:24:22;;;;;;;28.40;5.18;;;23.70;70.30;;;;;;4993991;28;20180;-62
2022/06/13 10:26:59;;;;;;;22.92;4.68;;;23.70;70.20;;;;;;5017368;28;20040;-62
2022/06/13 10:29:27;;;;;;;45.15;5.57;;;23.70;69.50;;;;;;5012443;28;20924;-62
2022/06/13 10:32:02;;;;;;;38.67;5.38;;;23.60;69.50;;;;;;5035671;28;20037;-62
2022/06/13 10:35:12;;;;;;;34.13;5.80;;;23.70;69.30;;;;;;5033559;28;20029;-62
2022/06/13 10:37:56;;;;;;;47.65;6.60;;;23.70;69.30;;;;;;5010301;28;20073;-62
2022/06/13 10:40:22;;;;;;;23.08;4.32;;;23.70;69.00;;;;;;5032853;28;20146;-61
2022/06/13 10:42:48;;;;;;;24.58;4.38;;;23.70;68.70;;;;;;5010791;28;20552;-62
2022/06/13 10:45:15;;;;;;;39.55;4.93;;;23.80;68.30;;;;;;5000608;28;20058;-62
2022/06/13 10:48:06;;;;;;;32.85;5.25;;;23.80;68.10;;;;;;4993245;28;20043;-62
2022/06/13 10:50:54;;;;;;;28.63;5.00;;;23.80;67.80;;;;;;5001260;28;20049;-63
2022/06/13 10:53:24;;;;;;;37.72;5.78;;;23.80;66.70;;;;;;5013330;28;20021;-62
2022/06/13 10:55:51;;;;;;;36.97;5.80;;;24.10;66.80;;;;;;5014458;28;20086;-62
2022/06/13 10:58:53;;;;;;;25.50;4.60;;;23.90;66.60;;;;;;5012982;28;20036;-62
2022/06/13 11:01:22;;;;;;;28.17;4.25;;;23.90;66.40;;;;;;4987181;28;20037;-62
2022/06/13 11:04:00;;;;;;;24.35;3.63;;;24.00;66.00;;;;;;5012784;28;20021;-63
2022/06/13 11:06:39;;;;;;;40.33;5.25;;;24.00;65.80;;;;;;5016505;28;20033;-62
2022/06/13 11:09:27;;;;;;;18.90;3.67;;;24.10;64.10;;;;;;5013594;28;20093;-62
2022/06/13 11:11:54;;;;;;;27.15;5.78;;;24.20;64.40;;;;;;4988708;28;20540;-62
2022/06/13 11:23:02;;;;;;;42.63;6.15;;;24.50;61.30;;;;;;5014733;28;20036;-62
2022/06/13 11:25:32;;;;;;;41.45;6.03;;;24.40;61.60;;;;;;5018542;28;20065;-62
2022/06/13 11:28:07;;;;;;;57.67;7.75;;;24.60;60.40;;;;;;5007682;28;20013;-62
2022/06/13 11:30:43;;;;;;;54.70;6.20;;;24.80;59.00;;;;;;5014510;28;20029;-62
2022/06/13 11:33:27;;;;;;;42.35;6.05;;;24.90;57.90;;;;;;5015126;28;20029;-63
2022/06/13 11:35:58;;;;;;;42.72;6.10;;;25.00;59.00;;;;;;5029297;28;20059;-62
2022/06/13 11:38:23;;;;;;;39.38;4.90;;;25.10;59.00;;;;;;5019050;28;20031;-62
2022/06/13 11:41:04;;;;;;;33.78;5.50;;;25.20;57.80;;;;;;5026167;28;20029;-62
2022/06/13 11:43:36;;;;;;;32.00;5.20;;;25.30;57.70;;;;;;5030158;28;20783;-62
2022/06/13 11:46:04;;;;;;;38.85;4.60;;;25.30;57.60;;;;;;4996011;28;20036;-62
2022/06/13 11:48:29;;;;;;;19.10;4.22;;;25.40;57.50;;;;;;4998789;28;20048;-63
2022/06/13 11:51:03;;;;;;;25.23;3.90;;;25.40;56.50;;;;;;5016460;28;20029;-62
2022/06/13 11:53:37;;;;;;;26.02;3.95;;;25.50;54.60;;;;;;5018204;28;20040;-62
2022/06/13 11:56:11;;;;;;;38.00;4.15;;;25.60;54.80;;;;;;5003910;28;20029;-62
2022/06/13 11:58:40;;;;;;;21.55;3.15;;;25.60;54.60;;;;;;5010097;28;20040;-63
2022/06/13 12:01:27;;;;;;;41.53;6.35;;;25.70;54.20;;;;;;5002984;28;20150;-62
2022/06/13 12:04:15;;;;;;;36.65;4.03;;;25.70;53.60;;;;;;5028092;28;20033;-62
2022/06/13 12:06:50;;;;;;;41.70;5.00;;;25.80;53.70;;;;;;4994219;28;20418;-62
2022/06/13 12:09:26;;;;;;;26.05;4.82;;;25.80;53.20;;;;;;5017783;28;20551;-62
2022/06/13 12:11:57;;;;;;;32.53;5.05;;;26.00;53.70;;;;;;5003524;28;20138;-62
2022/06/13 12:14:25;;;;;;;26.00;4.15;;;26.00;53.60;;;;;;5033980;28;20126;-62
2022/06/13 12:17:11;;;;;;;34.72;4.70;;;26.10;53.10;;;;;;5033559;28;20028;-62
2022/06/13 12:19:52;;;;;;;34.65;3.92;;;26.20;53.10;;;;;;5030588;28;20107;-62
2022/06/13 12:22:27;;;;;;;42.72;4.53;;;26.20;52.70;;;;;;5015015;28;20079;-62
2022/06/13 12:24:58;;;;;;;35.22;4.32;;;26.30;51.10;;;;;;5015498;28;20075;-62
2022/06/13 12:27:30;;;;;;;26.02;3.50;;;26.40;52.20;;;;;;5020296;28;20036;-61
2022/06/13 12:30:11;;;;;;;29.17;3.53;;;26.40;51.90;;;;;;5029905;28;20850;-63
2022/06/13 12:32:40;;;;;;;30.55;4.35;;;26.60;52.20;;;;;;5034794;28;20126;-62
2022/06/13 12:35:14;;;;;;;39.20;4.63;;;26.60;51.50;;;;;;5006089;28;20037;-61
2022/06/13 12:37:53;;;;;;;18.60;3.28;;;26.70;51.50;;;;;;5035254;28;20115;-62
2022/06/13 12:40:41;;;;;;;25.23;4.07;;;26.90;51.80;;;;;;5018672;28;20553;-62
2022/06/13 12:43:31;;;;;;;27.40;3.67;;;27.00;51.60;;;;;;5020984;28;20021;-62
2022/06/13 12:46:21;;;;;;;20.73;3.65;;;27.20;50.80;;;;;;5038018;28;20040;-62
2022/06/13 12:49:15;;;;;;;27.75;3.58;;;27.30;51.20;;;;;;5018139;28;20045;-62
2022/06/13 12:52:04;;;;;;;27.70;3.80;;;27.30;51.50;;;;;;5026898;28;20075;-62
2022/06/13 12:54:49;;;;;;;22.67;3.78;;;27.40;51.40;;;;;;5007839;28;20488;-62
2022/06/13 12:57:20;;;;;;;26.25;4.15;;;27.60;51.00;;;;;;5023135;28;20040;-62
2022/06/13 13:00:07;;;;;;;34.83;3.65;;;27.60;51.00;;;;;;5041666;28;20059;-62
2022/06/13 13:02:47;;;;;;;30.80;4.00;;;27.70;50.90;;;;;;5038261;28;20540;-62
2022/06/13 13:05:36;;;;;;;19.00;3.83;;;27.90;50.00;;;;;;5035796;28;20176;-62
2022/06/13 13:08:23;;;;;;;30.25;5.10;;;28.00;50.40;;;;;;5020296;28;20026;-63
2022/06/13 13:11:21;;;;;;;34.15;4.88;;;28.10;50.10;;;;;;5027815;28;20090;-62
2022/06/13 13:14:11;;;;;;;40.40;5.25;;;28.10;49.80;;;;;;5023744;28;20029;-63
2022/06/13 13:16:42;;;;;;;36.90;3.90;;;28.20;49.40;;;;;;5016295;28;20059;-62
2022/06/13 13:19:28;;;;;;;21.73;3.35;;;28.30;48.10;;;;;;5040282;28;20500;-63
2022/06/13 13:22:12;;;;;;;23.70;3.33;;;28.20;47.00;;;;;;5020631;28;20037;-63
2022/06/13 13:24:40;;;;;;;21.80;3.33;;;28.20;47.30;;;;;;5016822;28;20152;-63
2022/06/13 13:27:13;;;;;;;20.63;3.35;;;28.10;47.20;;;;;;5030499;28;20021;-63
2022/06/13 13:29:52;;;;;;;14.82;2.70;;;28.20;46.00;;;;;;5021130;28;20024;-63
2022/06/13 13:32:39;;;;;;;15.93;2.65;;;28.10;45.90;;;;;;5021082;28;20051;-61
2022/06/13 13:35:17;;;;;;;15.38;2.10;;;28.10;46.00;;;;;;5038508;28;21201;-62
2022/06/13 13:37:51;;;;;;;39.00;5.32;;;28.10;46.50;;;;;;5020863;28;20133;-63